Time;durP1;ratioP1;P1;durP2;ratioP2;P2;SDS_P1;SDS_P2;PMS_P1;PMS_P2;Temp;Humidity;BMP_temperature;BMP_pressure;BME280_temperature;BME280_humidity;BME280_pressure;Samples;Min_cycle;Max_cycle;Signal;HPM_P1;HPM_P2
2022/05/02 00:02:10;;;;;;;14.73;11.77;;;;;;;;;;5009819;28;20034;-75
2022/05/02 00:04:35;;;;;;;16.63;10.95;;;;;;;;;;5007012;28;20017;-74
2022/05/02 00:07:00;;;;;;;14.52;12.07;;;;;;;;;;5009140;28;20113;-75
2022/05/02 00:09:26;;;;;;;14.50;11.23;;;;;;;;;;5010203;28;20084;-74
2022/05/02 00:11:51;;;;;;;13.35;11.32;;;;;;;;;;5007685;28;20083;-75
2022/05/02 00:14:16;;;;;;;11.18;8.63;;;;;;;;;;5010999;28;20503;-75
2022/05/02 00:16:42;;;;;;;10.60;8.25;;;;;;;;;;5009268;28;20496;-75
2022/05/02 00:19:07;;;;;;;9.95;7.80;;;;;;;;;;5008908;28;20030;-75
2022/05/02 00:21:32;;;;;;;7.97;7.18;;;;;;;;;;5010109;28;20057;-75
2022/05/02 00:23:58;;;;;;;11.05;8.02;;;;;;;;;;5010980;28;20025;-75
2022/05/02 00:26:23;;;;;;;9.02;7.32;;;;;;;;;;5009536;28;20429;-75
2022/05/02 00:28:48;;;;;;;10.73;8.23;;;;;;;;;;5008509;28;20057;-75
2022/05/02 00:31:14;;;;;;;11.13;7.95;;;;;;;;;;5008744;28;20171;-77
2022/05/02 00:33:39;;;;;;;9.38;7.38;;;;;;;;;;5010255;28;20491;-75
2022/05/02 00:36:05;;;;;;;8.20;7.03;;;;;;;;;;5009225;28;20021;-74
2022/05/02 00:38:30;;;;;;;8.93;7.97;;;;;;;;;;5008209;28;20783;-74
2022/05/02 00:40:57;;;;;;;9.27;7.50;;;;;;;;;;5008900;28;20025;-75
2022/05/02 00:43:22;;;;;;;10.95;8.95;;;;;;;;;;5008553;28;20103;-75
2022/05/02 00:45:47;;;;;;;13.45;9.73;;;;;;;;;;5009697;28;20076;-75
2022/05/02 00:48:13;;;;;;;15.40;9.90;;;;;;;;;;5010021;28;20033;-74
2022/05/02 00:50:44;;;;;;;15.20;11.20;;;;;;;;;;5009497;28;20052;-74
2022/05/02 00:53:12;;;;;;;15.82;10.88;;;;;;;;;;5009617;28;20029;-75
2022/05/02 00:55:38;;;;;;;12.52;9.82;;;;;;;;;;5008249;28;20028;-74
2022/05/02 00:58:04;;;;;;;11.90;8.73;;;;;;;;;;5008415;28;20193;-74
2022/05/02 01:00:31;;;;;;;11.07;8.32;;;;;;;;;;5008082;28;20056;-75
2022/05/02 01:02:57;;;;;;;13.63;8.75;;;;;;;;;;5008348;28;20566;-74
2022/05/02 01:05:23;;;;;;;11.20;8.95;;;;;;;;;;5006630;28;20038;-74
2022/05/02 01:07:49;;;;;;;14.65;9.70;;;;;;;;;;5007519;28;20056;-77
2022/05/02 01:10:17;;;;;;;14.18;10.30;;;;;;;;;;5008255;28;20041;-75
2022/05/02 01:12:44;;;;;;;14.43;10.93;;;;;;;;;;5007689;28;20037;-75
2022/05/02 01:15:10;;;;;;;15.93;11.23;;;;;;;;;;5007983;28;20033;-77
2022/05/02 01:17:37;;;;;;;13.15;9.40;;;;;;;;;;5009714;28;20557;-76
2022/05/02 01:20:13;;;;;;;13.23;9.57;;;;;;;;;;5009900;28;20076;-76
2022/05/02 01:22:38;;;;;;;11.02;8.27;;;;;;;;;;5008636;28;20285;-76
2022/05/02 01:25:04;;;;;;;11.65;8.77;;;;;;;;;;5005972;28;20025;-77
2022/05/02 01:27:29;;;;;;;10.25;8.07;;;;;;;;;;5008477;28;20049;-76
2022/05/02 01:29:55;;;;;;;10.77;8.77;;;;;;;;;;5008677;28;20452;-76
2022/05/02 01:32:20;;;;;;;10.80;8.15;;;;;;;;;;5009212;28;20670;-76
2022/05/02 01:34:45;;;;;;;10.18;8.35;;;;;;;;;;5009417;28;20042;-77
2022/05/02 01:37:14;;;;;;;12.48;8.63;;;;;;;;;;5009667;28;20037;-75
2022/05/02 01:39:40;;;;;;;12.63;9.70;;;;;;;;;;5007603;28;20483;-76
2022/05/02 01:42:07;;;;;;;13.00;9.75;;;;;;;;;;5008467;28;20373;-76
2022/05/02 01:44:34;;;;;;;14.43;10.07;;;;;;;;;;5007943;28;20030;-77
2022/05/02 01:46:59;;;;;;;13.27;9.90;;;;;;;;;;5007678;28;20026;-76
2022/05/02 01:49:24;;;;;;;13.70;10.27;;;;;;;;;;5008604;28;20595;-76
2022/05/02 01:51:50;;;;;;;13.73;9.95;;;;;;;;;;5010206;28;20373;-76
2022/05/02 01:54:16;;;;;;;11.90;9.05;;;;;;;;;;5007443;28;20041;-76
2022/05/02 01:56:42;;;;;;;9.88;8.40;;;;;;;;;;5007506;28;20033;-76
2022/05/02 01:59:07;;;;;;;12.15;8.93;;;;;;;;;;5009049;28;20041;-76
2022/05/02 02:01:33;;;;;;;11.40;9.18;;;;;;;;;;5007818;28;20045;-76
2022/05/02 02:04:00;;;;;;;13.23;9.75;;;;;;;;;;5008049;28;20435;-76
2022/05/02 02:06:26;;;;;;;11.88;9.48;;;;;;;;;;5007828;28;20033;-77
2022/05/02 02:08:51;;;;;;;15.75;10.27;;;;;;;;;;5007566;28;20033;-76
2022/05/02 02:11:17;;;;;;;13.18;9.25;;;;;;;;;;5007232;28;20104;-76
2022/05/02 02:13:42;;;;;;;12.10;9.45;;;;;;;;;;5009433;28;20029;-76
2022/05/02 02:16:09;;;;;;;12.07;9.23;;;;;;;;;;5009311;28;20076;-73
2022/05/02 02:18:36;;;;;;;13.55;9.90;;;;;;;;;;5009073;28;20056;-74
2022/05/02 02:21:02;;;;;;;11.93;9.52;;;;;;;;;;5001096;28;20399;-73
2022/05/02 02:23:28;;;;;;;15.20;10.80;;;;;;;;;;5016382;28;20018;-73
2022/05/02 02:25:53;;;;;;;15.48;9.80;;;;;;;;;;5016713;28;20447;-76
2022/05/02 02:28:19;;;;;;;14.15;10.48;;;;;;;;;;5007994;28;20431;-75
2022/05/02 02:30:45;;;;;;;13.43;10.77;;;;;;;;;;5017321;28;20101;-73
2022/05/02 02:33:11;;;;;;;13.60;10.77;;;;;;;;;;5009136;28;20109;-74
2022/05/02 02:35:37;;;;;;;13.05;10.65;;;;;;;;;;5011197;28;20092;-73
2022/05/02 02:38:02;;;;;;;13.13;10.30;;;;;;;;;;5024970;28;20491;-74
2022/05/02 02:40:29;;;;;;;14.02;9.88;;;;;;;;;;5008993;28;20029;-75
2022/05/02 02:42:54;;;;;;;15.10;10.77;;;;;;;;;;5009828;28;20021;-74
2022/05/02 02:45:19;;;;;;;13.50;9.75;;;;;;;;;;5008433;28;20030;-75
2022/05/02 02:47:45;;;;;;;13.95;10.25;;;;;;;;;;5006395;28;20029;-74
2022/05/02 02:50:10;;;;;;;12.07;9.77;;;;;;;;;;5017041;28;20029;-74
2022/05/02 02:52:35;;;;;;;13.45;10.48;;;;;;;;;;5011485;28;20026;-74
2022/05/02 02:55:01;;;;;;;13.35;10.27;;;;;;;;;;5009400;28;20624;-74
2022/05/02 02:57:26;;;;;;;14.68;10.02;;;;;;;;;;5005950;28;20343;-73
2022/05/02 02:59:52;;;;;;;13.02;9.93;;;;;;;;;;5007852;28;20096;-75
2022/05/02 03:02:17;;;;;;;11.70;9.85;;;;;;;;;;5017535;28;20018;-74
2022/05/02 03:07:27;;;;;;;12.32;9.88;;;;;;;;;;5013187;28;20037;-74
2022/05/02 03:09:53;;;;;;;11.63;8.98;;;;;;;;;;5012449;28;20021;-73
2022/05/02 03:12:20;;;;;;;13.68;10.20;;;;;;;;;;5012735;28;20231;-73
2022/05/02 03:14:46;;;;;;;12.15;10.10;;;;;;;;;;5015916;28;20098;-73
2022/05/02 03:17:11;;;;;;;12.40;9.00;;;;;;;;;;5006028;28;20570;-73
2022/05/02 03:19:38;;;;;;;16.52;10.10;;;;;;;;;;5010436;28;20053;-73
2022/05/02 03:22:03;;;;;;;13.80;10.40;;;;;;;;;;5010530;28;20038;-74
2022/05/02 03:24:29;;;;;;;14.45;10.57;;;;;;;;;;5012470;28;20383;-74
2022/05/02 03:26:54;;;;;;;14.10;10.20;;;;;;;;;;5011182;28;20120;-74
2022/05/02 03:29:20;;;;;;;13.35;10.35;;;;;;;;;;5011800;28;20032;-73
2022/05/02 03:31:45;;;;;;;14.73;10.40;;;;;;;;;;5010904;28;20060;-74
2022/05/02 03:34:10;;;;;;;14.25;10.38;;;;;;;;;;5012039;28;20030;-73
2022/05/02 03:36:36;;;;;;;16.45;11.98;;;;;;;;;;5010317;28;20471;-74
2022/05/02 03:39:02;;;;;;;16.05;10.57;;;;;;;;;;5006656;28;20022;-73
2022/05/02 03:41:27;;;;;;;14.32;10.60;;;;;;;;;;5020105;28;20121;-74
2022/05/02 03:43:52;;;;;;;14.98;10.57;;;;;;;;;;5009931;28;20458;-73
2022/05/02 03:46:18;;;;;;;14.98;10.15;;;;;;;;;;5011481;28;20026;-74
2022/05/02 03:48:44;;;;;;;14.73;11.27;;;;;;;;;;5011484;28;20451;-74
2022/05/02 03:51:10;;;;;;;13.35;10.15;;;;;;;;;;5011813;28;20040;-74
2022/05/02 03:53:35;;;;;;;15.10;11.07;;;;;;;;;;5012096;28;20041;-74
2022/05/02 03:56:01;;;;;;;15.20;10.82;;;;;;;;;;5010693;28;20025;-73
2022/05/02 03:58:26;;;;;;;17.00;10.60;;;;;;;;;;5014615;28;20034;-73
2022/05/02 04:00:51;;;;;;;15.32;11.38;;;;;;;;;;5013713;28;20079;-73
2022/05/02 04:03:17;;;;;;;14.32;10.65;;;;;;;;;;5016797;28;20066;-73
2022/05/02 04:05:42;;;;;;;14.93;11.02;;;;;;;;;;5011584;28;20040;-74
2022/05/02 04:08:07;;;;;;;14.48;10.55;;;;;;;;;;5011091;28;20038;-74
2022/05/02 04:10:33;;;;;;;13.52;10.32;;;;;;;;;;5011425;28;20067;-73
2022/05/02 04:12:58;;;;;;;15.43;11.13;;;;;;;;;;5009525;28;20476;-74
2022/05/02 04:15:23;;;;;;;13.05;10.35;;;;;;;;;;5012167;28;20022;-74
2022/05/02 04:17:49;;;;;;;14.63;10.75;;;;;;;;;;5016041;28;20120;-75
2022/05/02 04:20:14;;;;;;;14.75;10.85;;;;;;;;;;5010846;28;20533;-74
2022/05/02 04:22:41;;;;;;;14.35;11.50;;;;;;;;;;5010566;28;20025;-73
2022/05/02 04:25:06;;;;;;;16.60;11.30;;;;;;;;;;5011319;28;20029;-74
2022/05/02 04:27:32;;;;;;;17.73;12.00;;;;;;;;;;5023322;28;20037;-75
2022/05/02 04:29:57;;;;;;;15.13;11.65;;;;;;;;;;5010855;28;20164;-75
2022/05/02 04:32:22;;;;;;;16.83;11.88;;;;;;;;;;5010728;28;20030;-74
2022/05/02 04:34:48;;;;;;;14.55;10.40;;;;;;;;;;5008738;28;20041;-74
2022/05/02 04:37:13;;;;;;;14.77;11.32;;;;;;;;;;5018715;28;20025;-74
2022/05/02 04:39:39;;;;;;;15.77;11.57;;;;;;;;;;5019504;28;20602;-72
2022/05/02 04:42:05;;;;;;;15.40;11.38;;;;;;;;;;5011212;28;20419;-74
2022/05/02 04:44:31;;;;;;;22.27;12.18;;;;;;;;;;5020542;28;20109;-73
2022/05/02 04:46:56;;;;;;;16.35;11.95;;;;;;;;;;5003546;28;20049;-73
2022/05/02 04:49:22;;;;;;;17.50;11.85;;;;;;;;;;5007569;28;20137;-74
2022/05/02 04:51:47;;;;;;;14.73;11.60;;;;;;;;;;5008356;28;20369;-75
2022/05/02 04:54:12;;;;;;;17.20;12.35;;;;;;;;;;5007715;28;20029;-75
2022/05/02 04:56:38;;;;;;;13.32;10.63;;;;;;;;;;5015829;28;20483;-73
2022/05/02 04:59:03;;;;;;;15.88;11.00;;;;;;;;;;5009382;28;20029;-74
2022/05/02 05:01:28;;;;;;;16.92;11.50;;;;;;;;;;5008785;28;20030;-74
2022/05/02 05:03:54;;;;;;;15.15;11.60;;;;;;;;;;5009746;28;20427;-74
2022/05/02 05:06:19;;;;;;;15.68;11.57;;;;;;;;;;5005859;28;20032;-74
2022/05/02 05:08:44;;;;;;;15.02;11.95;;;;;;;;;;5017295;28;20026;-75
2022/05/02 05:11:27;;;;;;;15.40;11.15;;;;;;;;;;5009590;28;20029;-73
2022/05/02 05:17:15;;;;;;;15.60;10.90;;;;;;;;;;5009591;28;20088;-74
2022/05/02 05:19:59;;;;;;;15.27;11.20;;;;;;;;;;5011739;28;20038;-74
2022/05/02 05:23:10;;;;;;;14.00;10.57;;;;;;;;;;5010084;28;20025;-73
2022/05/02 05:25:42;;;;;;;16.60;12.45;;;;;;;;;;5000220;28;20030;-74
2022/05/02 05:28:27;;;;;;;17.83;12.20;;;;;;;;;;4990189;28;20081;-75
2022/05/02 05:31:10;;;;;;;16.30;11.77;;;;;;;;;;4996975;28;20275;-74
2022/05/02 05:33:50;;;;;;;;;;;;;;;;;;5010143;28;20092;-75
2022/05/02 05:36:41;;;;;;;16.15;10.88;;;;;;;;;;5009376;28;20383;-75
2022/05/02 05:39:10;;;;;;;17.88;11.35;;;;;;;;;;5003939;28;20065;-73
2022/05/02 05:41:41;;;;;;;16.02;11.23;;;;;;;;;;5016699;28;20033;-74
2022/05/02 05:44:39;;;;;;;15.57;11.15;;;;;;;;;;5016514;28;20026;-74
2022/05/02 05:47:31;;;;;;;17.20;10.88;;;;;;;;;;5019381;28;20017;-75
2022/05/02 05:50:20;;;;;;;15.90;11.25;;;;;;;;;;5021206;28;20029;-74
2022/05/02 05:53:20;;;;;;;12.32;10.05;;;;;;;;;;5009270;28;20026;-74
2022/05/02 05:56:04;;;;;;;13.50;10.85;;;;;;;;;;5002095;28;20034;-77
2022/05/02 05:58:57;;;;;;;17.75;11.52;;;;;;;;;;5008384;28;20088;-74
2022/05/02 06:01:55;;;;;;;14.48;10.80;;;;;;;;;;5008278;28;20038;-74
2022/05/02 06:04:22;;;;;;;14.45;10.63;;;;;;;;;;4985504;28;20742;-77
2022/05/02 06:06:48;;;;;;;13.27;10.80;;;;;;;;;;4995366;28;20029;-77
2022/05/02 06:09:15;;;;;;;14.02;10.93;;;;;;;;;;5011412;28;20467;-78
2022/05/02 06:11:44;;;;;;;14.38;11.30;;;;;;;;;;5012760;28;20541;-76
2022/05/02 06:14:14;;;;;;;14.88;10.38;;;;;;;;;;5011438;28;20030;-74
2022/05/02 06:19:27;;;;;;;13.23;11.32;;;;;;;;;;5003147;28;20457;-80
2022/05/02 06:21:56;;;;;;;13.55;10.70;;;;;;;;;;5006205;28;20061;-75
2022/05/02 06:24:26;;;;;;;14.27;10.05;;;;;;;;;;5005341;28;20025;-74
2022/05/02 06:26:51;;;;;;;12.48;9.85;;;;;;;;;;5003644;28;20492;-77
2022/05/02 06:29:18;;;;;;;13.07;9.95;;;;;;;;;;5005653;28;20030;-75
2022/05/02 06:31:46;;;;;;;10.88;8.95;;;;;;;;;;5005908;28;20018;-76
2022/05/02 06:34:14;;;;;;;14.25;9.38;;;;;;;;;;5004143;28;20029;-78
2022/05/02 06:36:47;;;;;;;11.75;8.40;;;;;;;;;;5017648;28;20056;-76
2022/05/02 06:39:16;;;;;;;;;;;;;;;;;;5026082;28;20685;-76
2022/05/02 06:42:12;;;;;;;11.73;8.85;;;;;;;;;;5019295;28;19913;-74
2022/05/02 06:44:46;;;;;;;10.27;8.43;;;;;;;;;;5011149;28;20075;-79
2022/05/02 06:47:36;;;;;;;12.27;8.70;;;;;;;;;;5013882;28;20030;-76
2022/05/02 06:50:05;;;;;;;10.43;8.98;;;;;;;;;;5008381;28;20492;-77
2022/05/02 06:52:54;;;;;;;10.10;8.98;;;;;;;;;;5017309;28;20034;-79
2022/05/02 06:55:41;;;;;;;10.27;8.05;;;;;;;;;;5008654;28;20029;-76
2022/05/02 06:58:16;;;;;;;10.65;8.90;;;;;;;;;;5019800;28;20092;-75
2022/05/02 07:01:02;;;;;;;16.50;10.35;;;;;;;;;;5001918;28;20116;-75
2022/05/02 07:03:33;;;;;;;10.27;8.80;;;;;;;;;;5014704;28;20056;-77
2022/05/02 07:06:23;;;;;;;16.38;11.75;;;;;;;;;;5023779;28;20505;-76
2022/05/02 07:09:00;;;;;;;11.25;8.45;;;;;;;;;;5024675;28;20106;-77
2022/05/02 07:11:51;;;;;;;11.65;8.45;;;;;;;;;;5014522;28;20026;-80
2022/05/02 07:14:25;;;;;;;11.25;8.27;;;;;;;;;;5009999;28;20028;-77
2022/05/02 07:16:54;;;;;;;9.43;8.10;;;;;;;;;;4986393;28;20507;-78
2022/05/02 07:19:34;;;;;;;10.98;7.70;;;;;;;;;;4986654;28;20045;-78
2022/05/02 07:22:07;;;;;;;9.40;8.20;;;;;;;;;;4997818;28;20125;-79
2022/05/02 07:24:50;;;;;;;11.18;8.60;;;;;;;;;;5012638;28;20073;-80
2022/05/02 07:27:28;;;;;;;11.05;8.80;;;;;;;;;;5004965;28;20105;-76
2022/05/02 07:29:57;;;;;;;11.25;8.63;;;;;;;;;;5012783;28;20581;-76
2022/05/02 07:32:24;;;;;;;11.18;8.57;;;;;;;;;;4995222;28;20101;-77
2022/05/02 07:34:52;;;;;;;13.32;8.55;;;;;;;;;;5012946;28;20410;-76
2022/05/02 07:37:21;;;;;;;11.63;8.32;;;;;;;;;;5017112;28;20484;-75
2022/05/02 07:39:48;;;;;;;11.55;7.82;;;;;;;;;;5017166;28;20026;-75
2022/05/02 07:42:15;;;;;;;10.85;8.35;;;;;;;;;;5024919;28;20032;-76
2022/05/02 07:44:44;;;;;;;11.60;7.53;;;;;;;;;;5028331;28;20597;-76
2022/05/02 07:47:11;;;;;;;11.45;8.77;;;;;;;;;;5027533;28;20117;-76
2022/05/02 07:49:37;;;;;;;10.20;8.35;;;;;;;;;;5027936;28;20029;-79
2022/05/02 07:52:03;;;;;;;11.80;7.50;;;;;;;;;;5027076;28;20084;-76
2022/05/02 07:54:30;;;;;;;9.73;7.45;;;;;;;;;;5016330;28;20061;-77
2022/05/02 07:56:58;;;;;;;8.65;7.70;;;;;;;;;;5022301;28;20029;-78
2022/05/02 07:59:33;;;;;;;11.38;7.90;;;;;;;;;;5019059;28;20021;-78
2022/05/02 08:01:58;;;;;;;14.10;8.02;;;;;;;;;;5016393;28;20211;-79
2022/05/02 08:04:24;;;;;;;8.40;7.00;;;;;;;;;;5019643;28;20033;-77
2022/05/02 08:07:09;;;;;;;11.35;7.18;;;;;;;;;;5015371;28;20609;-78
2022/05/02 08:09:56;;;;;;;10.30;6.22;;;;;;;;;;5018354;28;20380;-76
2022/05/02 08:12:48;;;;;;;8.63;6.00;;;;;;;;;;5027392;28;20036;-73
2022/05/02 08:15:19;;;;;;;11.75;6.55;;;;;;;;;;5015713;28;20083;-73
2022/05/02 08:18:03;;;;;;;8.02;6.28;;;;;;;;;;5004996;28;20035;-76
2022/05/02 08:20:49;;;;;;;14.38;7.30;;;;;;;;;;5016614;28;20029;-77
2022/05/02 08:27:19;;;;;;;23.98;7.75;;;;;;;;;;5012494;28;20530;-76
2022/05/02 08:29:53;;;;;;;11.75;5.60;;;;;;;;;;5023931;28;20026;-77
2022/05/02 08:32:44;;;;;;;11.80;6.05;;;;;;;;;;5020453;28;20098;-73
2022/05/02 08:35:46;;;;;;;9.90;5.70;;;;;;;;;;5027567;28;20119;-75
2022/05/02 08:38:30;;;;;;;9.75;5.20;;;;;;;;;;5026531;28;20024;-76
2022/05/02 08:41:34;;;;;;;8.75;5.68;;;;;;;;;;5025820;28;20022;-74
2022/05/02 08:44:23;;;;;;;5.85;5.25;;;;;;;;;;5026980;28;20406;-77
2022/05/02 08:47:26;;;;;;;7.95;5.40;;;;;;;;;;5026765;28;20028;-74
2022/05/02 08:50:19;;;;;;;8.73;5.40;;;;;;;;;;5026783;28;20029;-74
2022/05/02 08:53:53;;;;;;;7.30;5.80;;;;;;;;;;5021246;28;20076;-77
2022/05/02 08:56:27;;;;;;;6.35;5.55;;;;;;;;;;4982404;28;20189;-75
2022/05/02 08:58:55;;;;;;;6.78;5.50;;;;;;;;;;4986115;28;20501;-76
2022/05/02 09:01:51;;;;;;;7.55;4.90;;;;;;;;;;5002487;28;20080;-76
2022/05/02 09:05:03;;;;;;;6.53;5.22;;;;;;;;;;5019003;28;20108;-75
2022/05/02 09:07:31;;;;;;;;;;;;;;;;;;5026631;28;20495;-75
2022/05/02 09:10:06;;;;;;;6.55;5.65;;;;;;;;;;5026026;28;20390;-77
2022/05/02 09:12:56;;;;;;;9.23;5.45;;;;;;;;;;5020710;28;20033;-76
2022/05/02 09:15:27;;;;;;;7.88;6.90;;;;;;;;;;5013987;28;20048;-73
2022/05/02 09:18:04;;;;;;;7.70;5.65;;;;;;;;;;5017408;28;20397;-78
2022/05/02 09:20:42;;;;;;;6.32;5.20;;;;;;;;;;5018082;28;20207;-76
2022/05/02 09:23:28;;;;;;;8.60;5.43;;;;;;;;;;5025867;28;20021;-75
2022/05/02 09:26:05;;;;;;;6.15;5.43;;;;;;;;;;5010442;28;20029;-75
2022/05/02 09:29:01;;;;;;;7.70;5.43;;;;;;;;;;5025640;28;20089;-74
2022/05/02 09:31:57;;;;;;;8.50;5.13;;;;;;;;;;5020930;28;20033;-77
2022/05/02 09:34:38;;;;;;;6.00;4.70;;;;;;;;;;5026803;28;20329;-77
2022/05/02 09:37:18;;;;;;;7.05;4.93;;;;;;;;;;5014515;28;20022;-77
2022/05/02 09:39:59;;;;;;;7.93;5.35;;;;;;;;;;5005578;28;20112;-77
2022/05/02 09:42:58;;;;;;;7.10;4.60;;;;;;;;;;5006739;28;20534;-76
2022/05/02 09:51:51;;;;;;;7.18;4.95;;;;;;;;;;5007023;28;20041;-76
2022/05/02 09:57:33;;;;;;;7.88;5.00;;;;;;;;;;5011946;28;20040;-76
2022/05/02 10:02:49;;;;;;;6.95;5.65;;;;;;;;;;5010780;28;20062;-76
2022/05/02 10:05:37;;;;;;;5.65;5.15;;;;;;;;;;5021286;28;20475;-75
2022/05/02 10:08:22;;;;;;;5.95;5.28;;;;;;;;;;5017229;28;20030;-76
2022/05/02 10:11:07;;;;;;;8.90;5.30;;;;;;;;;;5000247;28;20026;-75
2022/05/02 10:13:53;;;;;;;5.32;4.82;;;;;;;;;;5015272;28;20518;-75
2022/05/02 10:16:40;;;;;;;7.00;4.75;;;;;;;;;;5015758;28;20025;-75
2022/05/02 10:19:15;;;;;;;6.00;4.55;;;;;;;;;;5013491;28;20025;-76
2022/05/02 10:22:13;;;;;;;6.63;4.90;;;;;;;;;;5010893;28;20109;-73
2022/05/02 10:24:47;;;;;;;5.75;4.28;;;;;;;;;;5009730;28;20037;-76
2022/05/02 10:27:32;;;;;;;4.43;4.03;;;;;;;;;;5009109;28;20104;-79
2022/05/02 10:30:14;;;;;;;5.82;4.60;;;;;;;;;;5010588;28;20045;-75
2022/05/02 10:32:55;;;;;;;5.65;5.00;;;;;;;;;;5009599;28;20064;-78
2022/05/02 10:35:21;;;;;;;5.20;4.68;;;;;;;;;;5010563;28;20051;-76
2022/05/02 10:37:56;;;;;;;7.50;4.95;;;;;;;;;;5011610;28;20036;-75
2022/05/02 10:40:40;;;;;;;4.82;4.43;;;;;;;;;;5010523;28;20066;-78
2022/05/02 10:43:10;;;;;;;7.32;4.50;;;;;;;;;;5012399;28;20021;-76
2022/05/02 10:45:38;;;;;;;6.50;4.50;;;;;;;;;;5009188;28;20034;-76
2022/05/02 10:48:15;;;;;;;5.10;4.60;;;;;;;;;;5007566;28;20348;-76
2022/05/02 10:50:44;;;;;;;5.57;4.50;;;;;;;;;;5009164;28;20033;-77
2022/05/02 10:53:34;;;;;;;4.72;4.32;;;;;;;;;;5008979;28;20040;-72
2022/05/02 10:56:27;;;;;;;6.88;4.85;;;;;;;;;;5008594;28;20037;-76
2022/05/02 10:58:54;;;;;;;6.47;4.88;;;;;;;;;;5006986;28;20192;-77
2022/05/02 11:01:47;;;;;;;6.10;5.22;;;;;;;;;;5009275;28;20498;-76
2022/05/02 11:04:45;;;;;;;7.00;4.65;;;;;;;;;;5009574;28;20033;-78
2022/05/02 11:07:30;;;;;;;5.13;4.03;;;;;;;;;;5008904;28;20045;-76
2022/05/02 11:10:03;;;;;;;7.53;5.10;;;;;;;;;;5008669;28;20502;-76
2022/05/02 11:12:32;;;;;;;6.13;4.90;;;;;;;;;;5008835;28;20029;-76
2022/05/02 11:15:10;;;;;;;6.30;5.03;;;;;;;;;;5010395;28;20057;-79
2022/05/02 11:17:54;;;;;;;5.50;4.70;;;;;;;;;;5012354;28;20506;-77
2022/05/02 11:20:42;;;;;;;5.53;5.03;;;;;;;;;;5009001;28;20104;-77
2022/05/02 11:23:31;;;;;;;6.40;4.85;;;;;;;;;;5007204;28;20026;-75
2022/05/02 11:26:20;;;;;;;4.97;4.20;;;;;;;;;;5011989;28;20029;-78
2022/05/02 11:29:24;;;;;;;6.15;4.88;;;;;;;;;;5013136;28;20491;-76
2022/05/02 11:32:01;;;;;;;8.35;5.20;;;;;;;;;;5005072;28;20290;-75
2022/05/02 11:34:51;;;;;;;5.45;4.75;;;;;;;;;;5011751;28;20022;-74
2022/05/02 11:38:01;;;;;;;6.47;4.65;;;;;;;;;;5010482;28;20080;-75
2022/05/02 11:40:32;;;;;;;6.25;4.80;;;;;;;;;;5005722;28;20049;-75
2022/05/02 11:42:58;;;;;;;9.30;5.35;;;;;;;;;;5011423;28;20088;-75
2022/05/02 11:45:39;;;;;;;7.72;5.18;;;;;;;;;;5010345;28;20034;-74
2022/05/02 11:48:08;;;;;;;4.80;4.35;;;;;;;;;;5010030;28;20112;-72
2022/05/02 11:50:56;;;;;;;6.60;5.35;;;;;;;;;;5020508;28;20373;-74
2022/05/02 11:53:25;;;;;;;7.45;5.28;;;;;;;;;;5029122;28;20116;-72
2022/05/02 11:55:51;;;;;;;6.68;5.38;;;;;;;;;;5021707;28;20029;-74
2022/05/02 11:58:26;;;;;;;5.68;4.50;;;;;;;;;;5018167;28;20117;-75
2022/05/02 12:00:58;;;;;;;5.50;4.75;;;;;;;;;;5006504;28;20033;-74
2022/05/02 12:03:25;;;;;;;7.50;4.75;;;;;;;;;;5017672;28;20500;-74
2022/05/02 12:05:55;;;;;;;6.28;4.53;;;;;;;;;;5011532;28;20025;-73
2022/05/02 12:08:32;;;;;;;7.78;4.30;;;;;;;;;;5024275;28;20033;-78
2022/05/02 12:11:08;;;;;;;7.13;4.25;;;;;;;;;;5006848;28;20030;-73
2022/05/02 12:13:35;;;;;;;7.93;4.47;;;;;;;;;;5003815;28;20042;-73
2022/05/02 12:16:04;;;;;;;5.35;3.90;;;;;;;;;;5012440;28;20025;-74
2022/05/02 12:18:42;;;;;;;4.68;4.05;;;;;;;;;;5017057;28;20402;-76
2022/05/02 12:21:10;;;;;;;4.35;3.80;;;;;;;;;;5019140;28;20129;-76
2022/05/02 12:23:40;;;;;;;4.45;4.05;;;;;;;;;;5020084;28;20176;-75
2022/05/02 12:26:15;;;;;;;4.70;4.10;;;;;;;;;;5011839;28;20049;-75
2022/05/02 12:28:45;;;;;;;4.78;4.22;;;;;;;;;;5019522;28;20040;-73
2022/05/02 12:31:17;;;;;;;4.78;3.70;;;;;;;;;;5014748;28;20510;-73
2022/05/02 12:33:46;;;;;;;6.10;4.38;;;;;;;;;;5015032;28;20028;-73
2022/05/02 12:36:16;;;;;;;4.80;4.20;;;;;;;;;;5022574;28;20139;-73
2022/05/02 12:39:02;;;;;;;5.15;4.68;;;;;;;;;;5024669;28;20477;-74
2022/05/02 12:41:30;;;;;;;4.55;3.60;;;;;;;;;;5011959;28;20026;-75
2022/05/02 12:44:06;;;;;;;4.68;3.60;;;;;;;;;;5021918;28;20029;-74
2022/05/02 12:46:39;;;;;;;4.88;4.00;;;;;;;;;;5016172;28;20037;-75
2022/05/02 12:49:09;;;;;;;6.07;4.20;;;;;;;;;;5011605;28;20307;-74
2022/05/02 12:51:35;;;;;;;7.70;4.75;;;;;;;;;;5016531;28;20441;-73
2022/05/02 12:54:21;;;;;;;6.60;4.70;;;;;;;;;;5010401;28;20030;-73
2022/05/02 13:00:30;;;;;;;5.80;4.53;;;;;;;;;;5008671;28;20026;-76
2022/05/02 13:02:43;;;;;;;6.60;4.75;;;;;;;;;;5015570;28;20053;-75
2022/05/02 13:05:16;;;;;;;8.98;4.18;;;;;;;;;;5007395;28;20578;-76
2022/05/02 13:08:09;;;;;;;4.20;3.80;;;;;;;;;;5006391;28;20053;-73
2022/05/02 13:10:34;;;;;;;4.45;4.00;;;;;;;;;;5002024;28;20500;-74
2022/05/02 13:13:08;;;;;;;5.03;3.72;;;;;;;;;;5012950;28;20173;-76
2022/05/02 13:15:38;;;;;;;6.30;3.60;;;;;;;;;;5012217;28;20025;-75
2022/05/02 13:18:08;;;;;;;4.50;3.70;;;;;;;;;;5016092;28;20026;-78
2022/05/02 13:20:34;;;;;;;5.13;3.70;;;;;;;;;;5007454;28;20026;-74
2022/05/02 13:23:01;;;;;;;5.03;3.63;;;;;;;;;;5011358;28;20025;-75
2022/05/02 13:26:10;;;;;;;6.32;3.90;;;;;;;;;;5015386;28;20029;-75
2022/05/02 13:28:44;;;;;;;4.55;3.42;;;;;;;;;;5012771;28;20017;-76
2022/05/02 13:31:20;;;;;;;4.93;3.60;;;;;;;;;;5013171;28;20045;-77
2022/05/02 13:33:51;;;;;;;4.53;3.78;;;;;;;;;;5004199;28;20033;-75
2022/05/02 13:36:17;;;;;;;4.23;3.83;;;;;;;;;;5008779;28;20030;-76
2022/05/02 13:38:52;;;;;;;4.93;3.70;;;;;;;;;;5004704;28;20711;-76
2022/05/02 13:41:42;;;;;;;6.68;3.92;;;;;;;;;;5011763;28;20770;-76
2022/05/02 13:44:47;;;;;;;4.72;3.85;;;;;;;;;;4985260;28;20448;-75
2022/05/02 13:47:13;;;;;;;4.38;3.97;;;;;;;;;;4992832;28;20644;-76
2022/05/02 13:49:44;;;;;;;5.15;4.13;;;;;;;;;;5012860;28;20037;-75
2022/05/02 13:52:18;;;;;;;4.45;3.83;;;;;;;;;;5012093;28;20094;-76
2022/05/02 13:54:49;;;;;;;6.47;3.80;;;;;;;;;;5011856;28;20033;-75
2022/05/02 13:57:42;;;;;;;5.18;4.00;;;;;;;;;;5025071;28;20048;-73
2022/05/02 14:03:12;;;;;;;5.72;3.92;;;;;;;;;;5002470;28;20101;-75
2022/05/02 14:08:37;;;;;;;6.03;4.68;;;;;;;;;;5006856;28;20029;-76
2022/05/02 14:11:03;;;;;;;4.45;4.05;;;;;;;;;;5014191;28;20032;-73
2022/05/02 14:13:29;;;;;;;4.93;4.07;;;;;;;;;;5004766;28;20029;-74
2022/05/02 14:16:16;;;;;;;4.30;3.78;;;;;;;;;;5006508;28;20084;-74
2022/05/02 14:18:55;;;;;;;4.13;3.72;;;;;;;;;;5018670;28;20014;-77
2022/05/02 14:21:25;;;;;;;6.25;4.30;;;;;;;;;;5001190;28;20022;-73
2022/05/02 14:23:58;;;;;;;4.32;3.60;;;;;;;;;;5005957;28;20167;-75
2022/05/02 14:26:26;;;;;;;5.57;3.78;;;;;;;;;;5013573;28;20022;-76
2022/05/02 14:28:54;;;;;;;6.97;3.97;;;;;;;;;;5010635;28;20036;-73
2022/05/02 14:31:21;;;;;;;6.50;4.57;;;;;;;;;;5016752;28;20090;-77
2022/05/02 14:33:48;;;;;;;6.47;4.35;;;;;;;;;;5013655;28;20100;-75
2022/05/02 14:36:15;;;;;;;5.90;4.25;;;;;;;;;;5022722;28;20036;-76
2022/05/02 14:38:42;;;;;;;7.22;3.90;;;;;;;;;;5000930;28;20028;-77
2022/05/02 14:41:08;;;;;;;4.57;4.18;;;;;;;;;;5008216;28;20026;-76
2022/05/02 14:43:34;;;;;;;5.53;3.58;;;;;;;;;;5010816;28;20022;-76
2022/05/02 14:46:01;;;;;;;6.53;4.20;;;;;;;;;;5013525;28;20033;-73
2022/05/02 14:48:27;;;;;;;5.70;4.10;;;;;;;;;;5012824;28;20515;-76
2022/05/02 14:51:13;;;;;;;5.60;4.25;;;;;;;;;;5007894;28;20110;-74
2022/05/02 14:53:41;;;;;;;5.00;4.15;;;;;;;;;;5006258;28;20041;-76
2022/05/02 14:56:12;;;;;;;4.10;3.70;;;;;;;;;;5013261;28;20025;-75
2022/05/02 14:58:40;;;;;;;6.35;4.13;;;;;;;;;;5010524;28;20104;-75
2022/05/02 15:01:15;;;;;;;5.35;4.43;;;;;;;;;;5002632;28;20037;-76
2022/05/02 15:03:53;;;;;;;4.43;3.83;;;;;;;;;;5007469;28;20032;-75
2022/05/02 15:06:24;;;;;;;5.03;3.88;;;;;;;;;;5008746;28;20033;-77
2022/05/02 15:12:42;;;;;;;4.57;4.18;;;;;;;;;;5007315;28;20427;-77
2022/05/02 15:15:22;;;;;;;4.78;4.13;;;;;;;;;;5011725;28;20028;-76
2022/05/02 15:18:17;;;;;;;4.53;4.00;;;;;;;;;;4989329;28;20045;-77
2022/05/02 15:20:46;;;;;;;7.22;3.90;;;;;;;;;;4989690;28;20412;-77
2022/05/02 15:23:14;;;;;;;4.82;4.00;;;;;;;;;;4988983;28;20368;-75
2022/05/02 15:25:50;;;;;;;6.63;3.95;;;;;;;;;;4989327;28;20049;-77
2022/05/02 15:36:50;;;;;;;5.00;3.80;;;;;;;;;;4989808;28;20088;-76
2022/05/02 15:39:18;;;;;;;5.75;4.00;;;;;;;;;;4989389;28;20108;-78
2022/05/02 15:41:43;;;;;;;8.48;4.00;;;;;;;;;;4989967;28;20058;-78
2022/05/02 15:44:13;;;;;;;5.28;4.13;;;;;;;;;;4988684;28;20169;-75
2022/05/02 15:46:43;;;;;;;5.47;4.22;;;;;;;;;;4989543;28;20058;-77
2022/05/02 15:49:11;;;;;;;5.43;4.38;;;;;;;;;;4989288;28;20128;-75
2022/05/02 15:51:44;;;;;;;6.97;4.32;;;;;;;;;;4989247;28;20022;-76
2022/05/02 15:54:18;;;;;;;4.95;4.10;;;;;;;;;;4989269;28;20026;-77
2022/05/02 15:57:11;;;;;;;6.75;4.60;;;;;;;;;;4988890;28;20387;-77